Вишня

Карта отелей и гостиниц, располагающихся рядом с аэропортом Вишня :

Вишня Ивановская область 57° 7' 34.7412" N, 42° 40' 5.4012" E
Вишня Ивановская область 57° 7' 34.7412" N, 42° 40' 5.4012" E
Код аэродрома ИКАО
ZAX5
Код аэродрома RU
ЗАЬ5
Координаты
N57.12632° E042.66817°
Превышение над уровнем моря
120
Основная полоса
04/22
Курс магнитный
035,4/215,4
Длина основной ВПП
760
Ширина основной ВПП
60
Покрытие основной ВПП
Нетвёрдое (грунт)
Освещение ВПП
Нет
Тип: 
Аэродром
Класс аэродрома: 
Принадлежность: 
ГА
Статус: 
Недействующий
Сайт: 
E-mail аэродрома: 
Страна: 
Россия
Регион: 
Ивановская область
Город: 
Дополнительная информация: 

Найти трансфер

С помощью этой формы Вы можете найти трансфер из аэропорта Вишня в город, аэропорт или вокзал:

Карта места

Javascript is required to view this map.

Погода в аэропортах:

Авиационная погода в аэропорту Международный

Регион: 
Погода METAR: 
UKLL 281100Z 16002MPS 130V200 9000 -RA SCT011 OVC024 07/06 Q0997 TEMPO BKN007
Время наблюдения
2021-11-28T11:00:00Z
Температура C
7.0
Точка росы
6.0
Направление ветра
160
Скорость ветра (узлы)
4
Метео видимость
5.59
Явления погоды
-RA
Условия полета
MVFR
Аэропорт подробнее: 

Авиационная погода в Белгороде

Регион: 
Погода METAR: 
UUOB 281300Z 17002MPS 7000 2000E BR OVC012 07/06 Q1008 R11/290060 NOSIG
Время наблюдения
2021-11-28T13:00:00Z
Температура C
7.0
Точка росы
6.0
Направление ветра
170
Скорость ветра (узлы)
4
Метео видимость
4.35
Явления погоды
BR
Условия полета
MVFR
Аэропорт подробнее: 

Авиационная погода в Николаеве

Регион: 
Погода METAR: 
UKON 281300Z 13003MPS 2600 -SHRA BR BKN005 BKN///CB 12/12 Q1003 NOSIG
Время наблюдения
2021-11-28T13:00:00Z
Температура C
12.0
Точка росы
12.0
Направление ветра
130
Скорость ветра (узлы)
6
Метео видимость
1.62
Явления погоды
-SHRA BR
Условия полета
IFR

Авиационная погода в Курске

Погода METAR: 
UUOK 281300Z 18002MPS 160V240 5000 BR OVC011 07/06 Q1008 R30/290050 TEMPO 1500 BR RMK QFE737/0983
Время наблюдения
2021-11-28T13:00:00Z
Температура C
7.0
Точка росы
6.0
Направление ветра
180
Скорость ветра (узлы)
4
Метео видимость
3.11
Явления погоды
BR
Условия полета
MVFR
Аэропорт подробнее: